Time;durP1;ratioP1;P1;durP2;ratioP2;P2;SDS_P1;SDS_P2;PMS_P1;PMS_P2;Temp;Humidity;BMP_temperature;BMP_pressure;BME280_temperature;BME280_humidity;BME280_pressure;Samples;Min_cycle;Max_cycle;Signal;HPM_P1;HPM_P2
2023/05/26 00:05:46;;;;;;;4.82;2.17;;;9.70;99.90;;;;;;20914702;28;20032;-52
2023/05/26 00:15:47;;;;;;;3.42;2.10;;;9.60;99.90;;;;;;20929955;28;20037;-58
2023/05/26 00:25:50;;;;;;;5.05;2.00;;;9.60;99.90;;;;;;20912751;28;20362;-58
2023/05/26 00:35:51;;;;;;;3.88;1.90;;;9.60;99.90;;;;;;20915476;28;20099;-58
2023/05/26 00:45:53;;;;;;;4.40;2.03;;;9.50;99.90;;;;;;20915600;28;20052;-58
2023/05/26 00:55:56;;;;;;;3.00;1.98;;;9.50;99.90;;;;;;20918710;28;20037;-55
2023/05/26 01:05:58;;;;;;;4.18;2.20;;;9.40;99.90;;;;;;20905181;28;20033;-52
2023/05/26 01:16:07;;;;;;;2.78;1.73;;;9.40;99.90;;;;;;20916044;28;20037;-58
2023/05/26 01:26:32;;;;;;;3.53;2.08;;;9.50;99.90;;;;;;20919682;28;20036;-48
2023/05/26 01:36:36;;;;;;;3.90;2.22;;;9.60;99.90;;;;;;20906936;28;20045;-49
2023/05/26 01:46:44;;;;;;;7.32;2.60;;;9.50;99.90;;;;;;20911186;28;20037;-48
2023/05/26 01:56:47;;;;;;;4.82;2.70;;;9.20;99.90;;;;;;20905844;28;20033;-58
2023/05/26 02:06:50;;;;;;;5.28;2.60;;;9.10;99.90;;;;;;20891371;28;20044;-51
2023/05/26 02:16:52;;;;;;;7.32;2.55;;;9.10;99.90;;;;;;20914794;28;20366;-58
2023/05/26 02:26:54;;;;;;;2.83;2.15;;;9.00;99.90;;;;;;20921627;28;20044;-48
2023/05/26 02:36:56;;;;;;;6.22;2.35;;;9.00;99.90;;;;;;20921355;28;20121;-58
2023/05/26 02:46:57;;;;;;;3.35;2.47;;;9.00;99.90;;;;;;20917085;28;20033;-49
2023/05/26 02:56:59;;;;;;;3.03;2.10;;;8.90;99.90;;;;;;20924489;28;20040;-52
2023/05/26 03:07:01;;;;;;;2.92;2.10;;;8.80;99.90;;;;;;20915211;28;20037;-50
2023/05/26 03:17:07;;;;;;;2.85;2.13;;;9.10;99.90;;;;;;20913471;28;20501;-58
2023/05/26 03:27:09;;;;;;;2.65;2.10;;;9.10;99.90;;;;;;20916369;28;20041;-53
2023/05/26 03:37:15;;;;;;;5.07;2.40;;;9.30;99.90;;;;;;20919111;28;20041;-48
2023/05/26 03:47:18;;;;;;;6.50;2.40;;;9.40;99.90;;;;;;20911163;28;20036;-58
2023/05/26 03:57:20;;;;;;;4.45;2.60;;;9.40;99.90;;;;;;20923936;28;20040;-48
2023/05/26 04:07:23;;;;;;;4.70;2.28;;;9.00;99.90;;;;;;20917118;28;20410;-49
2023/05/26 04:17:24;;;;;;;3.50;2.30;;;9.10;99.90;;;;;;20911943;28;20452;-52
2023/05/26 04:27:26;;;;;;;6.63;2.80;;;9.30;99.90;;;;;;20909390;28;20048;-48
2023/05/26 04:37:38;;;;;;;5.88;2.92;;;9.10;99.90;;;;;;20918337;28;20045;-48
2023/05/26 04:47:40;;;;;;;4.18;2.92;;;9.00;99.90;;;;;;20915270;28;20453;-50
2023/05/26 04:57:43;;;;;;;8.23;3.15;;;9.00;99.90;;;;;;20913104;28;20036;-58
2023/05/26 05:07:49;;;;;;;5.05;2.45;;;9.10;99.90;;;;;;20904910;28;20445;-58
2023/05/26 05:17:51;;;;;;;4.85;2.63;;;9.30;99.90;;;;;;20903240;28;20071;-54
2023/05/26 05:27:53;;;;;;;4.78;2.40;;;9.60;99.90;;;;;;20905532;28;20556;-49
2023/05/26 05:37:57;;;;;;;3.45;2.45;;;9.80;99.90;;;;;;20918785;28;20045;-57
2023/05/26 05:47:59;;;;;;;4.57;2.72;;;10.10;99.90;;;;;;20909625;28;20099;-47
2023/05/26 05:58:01;;;;;;;5.10;2.85;;;10.30;99.90;;;;;;20908816;28;20041;-58
2023/05/26 06:08:03;;;;;;;2.38;1.80;;;10.70;99.90;;;;;;20906141;28;20029;-57
2023/05/26 06:18:05;;;;;;;2.33;1.80;;;11.40;99.90;;;;;;20908104;28;20083;-49
2023/05/26 06:28:07;;;;;;;3.28;1.48;;;15.90;99.90;;;;;;20884650;28;20048;-59
2023/05/26 06:38:09;;;;;;;4.50;1.60;;;17.70;99.90;;;;;;20897201;28;20049;-52
2023/05/26 06:48:11;;;;;;;3.28;1.58;;;19.60;95.20;;;;;;20903185;28;20102;-53
2023/05/26 06:58:20;;;;;;;3.22;1.60;;;20.70;95.50;;;;;;20911132;28;20037;-59
2023/05/26 07:08:23;;;;;;;3.35;1.85;;;23.00;92.80;;;;;;20919420;28;20037;-57
2023/05/26 07:18:25;;;;;;;2.92;1.80;;;24.70;90.90;;;;;;20917538;28;20029;-57
2023/05/26 07:28:28;;;;;;;2.63;1.70;;;25.70;86.20;;;;;;20914861;28;20037;-57
2023/05/26 07:38:30;;;;;;;1.95;1.70;;;25.80;88.60;;;;;;20918038;28;20037;-57
2023/05/26 07:48:32;;;;;;;4.78;2.42;;;25.60;90.20;;;;;;20915750;28;20041;-50
2023/05/26 07:58:35;;;;;;;3.10;2.13;;;25.70;89.30;;;;;;20916985;28;20396;-57
2023/05/26 08:08:37;;;;;;;3.30;2.08;;;25.60;84.70;;;;;;20914099;28;20095;-57
2023/05/26 08:18:38;;;;;;;3.72;2.15;;;25.40;88.70;;;;;;20917009;28;20473;-58
2023/05/26 08:28:40;;;;;;;5.40;2.03;;;25.20;88.50;;;;;;20907007;28;20452;-48
2023/05/26 08:38:42;;;;;;;3.17;1.92;;;25.50;90.00;;;;;;20902630;28;20041;-56
2023/05/26 08:48:44;;;;;;;3.97;2.00;;;25.60;85.80;;;;;;20906510;28;20086;-58
2023/05/26 08:58:47;;;;;;;3.65;1.95;;;25.30;87.30;;;;;;20909201;28;20036;-57
2023/05/26 09:08:48;;;;;;;3.85;2.75;;;25.20;88.60;;;;;;20900367;28;20040;-57
2023/05/26 09:18:58;;;;;;;3.60;2.42;;;25.30;90.20;;;;;;20904237;28;20390;-57
2023/05/26 09:29:01;;;;;;;3.40;2.55;;;25.30;90.00;;;;;;20901962;28;20025;-57
2023/05/26 09:39:08;;;;;;;3.22;2.58;;;25.50;90.90;;;;;;20899689;28;20064;-57
2023/05/26 09:49:14;;;;;;;4.70;2.90;;;25.50;92.10;;;;;;20898559;28;20037;-57
2023/05/26 09:59:17;;;;;;;5.53;3.00;;;25.80;91.70;;;;;;20901123;28;20041;-57
2023/05/26 10:09:23;;;;;;;5.90;3.40;;;25.80;90.80;;;;;;20898002;28;20094;-56
2023/05/26 10:19:24;;;;;;;4.45;3.53;;;25.60;92.20;;;;;;20902510;28;20033;-56
2023/05/26 10:29:36;;;;;;;5.47;3.30;;;25.80;91.70;;;;;;20901717;28;20041;-56
2023/05/26 10:39:41;;;;;;;4.68;3.88;;;25.80;92.00;;;;;;20910396;28;20391;-57
2023/05/26 10:49:59;;;;;;;8.60;4.85;;;26.00;91.10;;;;;;20918156;28;20036;-56
2023/05/26 11:00:19;;;;;;;;;;;26.20;91.10;;;;;;20911226;28;20463;-56
2023/05/26 11:10:20;;;;;;;4.45;4.05;;;25.20;93.40;;;;;;20913640;28;19913;-57
2023/05/26 11:20:23;;;;;;;5.45;4.43;;;25.70;93.00;;;;;;20912115;28;20033;-56
2023/05/26 11:30:33;;;;;;;5.88;4.50;;;26.10;92.90;;;;;;20916999;28;20048;-57
2023/05/26 11:40:35;;;;;;;5.22;3.90;;;26.40;91.10;;;;;;20904877;28;20056;-57
2023/05/26 11:50:39;;;;;;;4.55;3.80;;;26.40;91.50;;;;;;20908739;28;20450;-57
2023/05/26 12:00:41;;;;;;;5.03;3.72;;;26.40;92.10;;;;;;20914156;28;20040;-57
2023/05/26 12:10:43;;;;;;;5.57;3.90;;;26.20;92.40;;;;;;20910941;28;20405;-57
2023/05/26 12:20:45;;;;;;;6.03;4.05;;;26.30;90.30;;;;;;20909582;28;20432;-56
2023/05/26 12:30:47;;;;;;;4.47;3.60;;;26.10;90.40;;;;;;20910307;28;20037;-57
2023/05/26 12:40:48;;;;;;;4.65;3.63;;;25.90;91.00;;;;;;20909183;28;20044;-58
2023/05/26 12:50:50;;;;;;;4.82;3.92;;;26.00;91.70;;;;;;20907307;28;20535;-57
2023/05/26 13:00:52;;;;;;;3.75;3.25;;;26.00;90.40;;;;;;20904180;28;20033;-56
2023/05/26 13:10:55;;;;;;;8.38;3.60;;;26.00;90.60;;;;;;20896990;28;20037;-57
2023/05/26 13:20:57;;;;;;;4.60;2.33;;;25.70;88.90;;;;;;20907130;28;20036;-60
2023/05/26 13:30:59;;;;;;;5.10;2.72;;;25.80;89.60;;;;;;20902567;28;20426;-58
2023/05/26 13:41:00;;;;;;;5.10;3.58;;;25.90;87.90;;;;;;20909766;28;20052;-58
2023/05/26 13:51:02;;;;;;;7.47;6.50;;;25.80;90.20;;;;;;20901123;28;20033;-59
2023/05/26 14:01:04;;;;;;;7.30;6.60;;;25.80;90.90;;;;;;20904672;28;20033;-58
2023/05/26 14:11:07;;;;;;;11.60;9.50;;;26.10;90.90;;;;;;20907262;28;20064;-59
2023/05/26 14:21:09;;;;;;;13.15;10.48;;;26.40;89.70;;;;;;20900590;28;20086;-59
2023/05/26 14:31:13;;;;;;;11.77;10.35;;;26.50;89.00;;;;;;20899089;28;20036;-59
2023/05/26 14:41:18;;;;;;;12.43;10.05;;;26.60;87.00;;;;;;20906762;28;20448;-59
2023/05/26 14:51:21;;;;;;;15.32;12.00;;;26.00;88.50;;;;;;20900046;28;20025;-59
2023/05/26 15:01:23;;;;;;;20.40;13.88;;;26.30;87.00;;;;;;20902713;28;20428;-59
2023/05/26 15:11:26;;;;;;;14.15;11.80;;;26.60;87.20;;;;;;20897437;28;20037;-58
2023/05/26 15:21:28;;;;;;;15.85;11.95;;;25.30;88.70;;;;;;20897606;28;20099;-57
2023/05/26 15:31:30;;;;;;;16.02;12.98;;;23.80;90.30;;;;;;20915934;28;20037;-57
2023/05/26 15:41:32;;;;;;;14.60;11.60;;;22.50;91.00;;;;;;20915263;28;20056;-59
2023/05/26 15:51:33;;;;;;;17.90;12.45;;;23.20;92.10;;;;;;20912613;28;20037;-60
2023/05/26 16:01:36;;;;;;;18.48;12.40;;;24.50;88.50;;;;;;20902902;28;20079;-46
2023/05/26 16:11:38;;;;;;;21.10;15.35;;;23.90;89.80;;;;;;20911776;28;20106;-57
2023/05/26 16:21:42;;;;;;;21.55;15.02;;;22.00;92.30;;;;;;20909318;28;20041;-57
2023/05/26 16:31:43;;;;;;;17.95;13.40;;;20.60;94.60;;;;;;20905285;28;20033;-48
2023/05/26 16:41:47;;;;;;;16.60;13.30;;;19.90;95.40;;;;;;20905224;28;20114;-57
2023/05/26 16:51:49;;;;;;;17.30;13.65;;;19.50;95.90;;;;;;20904269;28;20033;-56
2023/05/26 17:01:51;;;;;;;16.48;13.27;;;18.80;98.30;;;;;;20903513;28;20391;-56
2023/05/26 17:11:52;;;;;;;16.15;13.57;;;18.10;97.90;;;;;;20902878;28;20393;-57
2023/05/26 17:21:55;;;;;;;18.88;14.88;;;17.50;99.90;;;;;;20898786;28;20489;-57
2023/05/26 17:31:56;;;;;;;21.65;15.68;;;16.80;99.90;;;;;;20901953;28;20944;-47
2023/05/26 17:41:58;;;;;;;20.33;15.63;;;16.20;99.90;;;;;;20902528;28;20049;-56
2023/05/26 17:52:00;;;;;;;21.08;15.73;;;15.50;99.90;;;;;;20899992;28;20032;-56
2023/05/26 18:02:01;;;;;;;23.17;16.88;;;15.00;99.90;;;;;;20890728;28;20033;-56
2023/05/26 18:12:03;;;;;;;26.00;17.00;;;14.50;99.90;;;;;;20898133;28;20083;-56
2023/05/26 18:22:05;;;;;;;26.65;16.58;;;14.00;99.90;;;;;;20903363;28;20037;-56
2023/05/26 18:32:07;;;;;;;19.48;13.85;;;13.80;99.90;;;;;;20900380;28;20021;-56
2023/05/26 18:42:09;;;;;;;26.17;17.38;;;13.50;99.90;;;;;;20898926;28;20040;-56
2023/05/26 18:52:10;;;;;;;25.95;15.52;;;13.20;99.90;;;;;;20898388;28;20474;-56
2023/05/26 19:02:12;;;;;;;20.58;12.90;;;12.90;99.90;;;;;;20911909;28;20021;-56
2023/05/26 19:12:14;;;;;;;23.45;14.75;;;12.60;99.90;;;;;;20911879;28;20063;-50
2023/05/26 19:22:16;;;;;;;20.17;13.90;;;12.30;99.90;;;;;;20912149;28;20044;-56
2023/05/26 19:32:17;;;;;;;23.35;13.90;;;12.00;99.90;;;;;;20922099;28;20509;-58
2023/05/26 19:42:19;;;;;;;22.08;12.80;;;11.90;99.90;;;;;;20918047;28;20474;-58
2023/05/26 19:52:21;;;;;;;21.20;13.45;;;11.90;99.90;;;;;;20913134;28;20033;-57
2023/05/26 20:02:23;;;;;;;15.20;9.60;;;12.00;99.90;;;;;;20910553;28;20536;-56
2023/05/26 20:12:25;;;;;;;19.63;12.38;;;11.80;99.90;;;;;;20905860;28;20037;-57
2023/05/26 20:22:27;;;;;;;15.80;10.32;;;11.80;99.90;;;;;;20906295;28;20392;-54
2023/05/26 20:32:29;;;;;;;14.25;9.82;;;11.60;99.90;;;;;;20904818;28;20102;-56
2023/05/26 20:42:32;;;;;;;18.15;12.30;;;11.90;99.90;;;;;;20904758;28;20063;-58
2023/05/26 20:52:34;;;;;;;18.08;12.23;;;11.70;99.90;;;;;;20906028;28;20154;-58
2023/05/26 21:02:35;;;;;;;20.73;12.52;;;11.50;99.90;;;;;;20904077;28;20066;-58
2023/05/26 21:12:37;;;;;;;13.65;10.18;;;11.60;99.90;;;;;;20908375;28;20051;-52
2023/05/26 21:22:39;;;;;;;15.77;10.60;;;11.60;99.90;;;;;;20902354;28;20059;-55
2023/05/26 21:32:40;;;;;;;17.23;9.77;;;11.60;99.90;;;;;;20903500;28;20560;-55
2023/05/26 21:42:42;;;;;;;11.57;8.20;;;11.80;99.90;;;;;;20903286;28;20033;-51
2023/05/26 21:52:44;;;;;;;11.98;7.95;;;12.20;99.90;;;;;;20901808;28;20418;-56
2023/05/26 22:02:45;;;;;;;10.60;6.85;;;12.50;99.90;;;;;;20905963;28;20032;-48
2023/05/26 22:12:47;;;;;;;12.98;6.90;;;12.50;99.90;;;;;;20904991;28;20059;-50
2023/05/26 22:22:48;;;;;;;16.00;9.93;;;12.40;99.90;;;;;;20908791;28;20098;-48
2023/05/26 22:32:50;;;;;;;10.93;7.90;;;12.40;99.90;;;;;;20902162;28;20045;-47
2023/05/26 22:42:52;;;;;;;13.57;9.48;;;12.50;99.90;;;;;;20918624;28;20094;-50
2023/05/26 22:52:53;;;;;;;16.75;10.73;;;12.50;99.90;;;;;;20915909;28;20079;-56
2023/05/26 23:02:57;;;;;;;15.20;9.85;;;12.40;99.90;;;;;;20915000;28;20041;-51
2023/05/26 23:13:01;;;;;;;17.50;12.48;;;12.50;99.90;;;;;;20920321;28;20029;-49
2023/05/26 23:23:03;;;;;;;24.95;16.63;;;12.60;99.90;;;;;;20916072;28;20033;-55
2023/05/26 23:33:04;;;;;;;26.27;17.23;;;12.60;99.90;;;;;;20914614;28;20045;-57
2023/05/26 23:43:06;;;;;;;25.38;16.63;;;12.60;99.90;;;;;;20912489;28;20049;-56
2023/05/26 23:53:07;;;;;;;27.02;18.15;;;12.60;99.90;;;;;;20915551;28;20025;-56
